createdAt,value
2019-05-03T00:01:23.725Z,3.83
2019-05-03T00:03:16.476Z,3.33
2019-05-03T00:05:23.604Z,3.70
2019-05-03T00:07:16.912Z,2.60
2019-05-03T00:09:11.965Z,2.62
2019-05-03T00:11:05.285Z,2.65
2019-05-03T00:12:58.688Z,2.33
2019-05-03T00:14:54.022Z,2.33
2019-05-03T00:16:48.644Z,2.67
2019-05-03T00:18:42.266Z,2.10
2019-05-03T00:20:35.736Z,2.45
2019-05-03T00:22:29.044Z,2.42
2019-05-03T00:26:16.127Z,2.20
2019-05-03T00:30:02.810Z,2.35
2019-05-03T00:31:56.087Z,1.95
2019-05-03T00:33:51.697Z,2.00
2019-05-03T00:35:46.584Z,2.15
2019-05-03T00:37:42.002Z,2.15
2019-05-03T00:39:41.735Z,1.90
2019-05-03T00:41:34.635Z,2.30
2019-05-03T00:43:27.824Z,2.65
2019-05-03T00:45:22.069Z,2.35
2019-05-03T00:47:15.278Z,2.15
2019-05-03T00:49:08.490Z,2.40
2019-05-03T00:51:02.414Z,1.87
2019-05-03T00:52:55.821Z,2.37
2019-05-03T00:54:49.179Z,2.15
2019-05-03T00:56:44.431Z,2.42
2019-05-03T00:58:38.747Z,2.75
2019-05-03T01:00:32.483Z,2.42
2019-05-03T01:02:26.366Z,2.55
2019-05-03T01:04:19.781Z,2.30
2019-05-03T01:06:13.087Z,2.85
2019-05-03T01:08:06.640Z,3.33
2019-05-03T01:09:59.627Z,2.52
2019-05-03T01:13:45.696Z,2.77
2019-05-03T01:15:42.333Z,2.55
2019-05-03T01:17:36.164Z,3.30
2019-05-03T01:19:29.157Z,2.77
2019-05-03T01:21:22.786Z,2.22
2019-05-03T01:23:16.460Z,2.85
2019-05-03T01:25:09.523Z,2.70
2019-05-03T01:27:02.809Z,3.00
2019-05-03T01:28:55.766Z,2.30
2019-05-03T01:30:48.755Z,2.33
2019-05-03T01:32:42.017Z,2.10
2019-05-03T01:36:27.324Z,2.30
2019-05-03T01:38:22.483Z,2.70
2019-05-03T01:40:16.769Z,2.40
2019-05-03T01:42:11.818Z,2.92
2019-05-03T01:44:05.656Z,2.60
2019-05-03T01:45:59.067Z,2.77
2019-05-03T01:47:53.908Z,3.17
2019-05-03T01:49:48.486Z,3.08
2019-05-03T01:51:43.046Z,3.25
2019-05-03T01:53:37.667Z,2.27
2019-05-03T01:55:48.576Z,3.10
2019-05-03T01:57:41.957Z,2.70
2019-05-03T01:59:35.163Z,3.05
2019-05-03T02:01:31.474Z,2.90
2019-05-03T02:03:41.841Z,3.12
2019-05-03T02:05:42.847Z,2.58
2019-05-03T02:07:36.271Z,2.30
2019-05-03T02:09:29.301Z,3.08
2019-05-03T02:11:22.540Z,3.65
2019-05-03T02:13:16.839Z,3.20
2019-05-03T02:15:11.921Z,2.62
2019-05-03T02:17:05.170Z,2.90
2019-05-03T02:20:52.413Z,3.47
2019-05-03T02:22:45.401Z,2.72
2019-05-03T02:24:38.351Z,3.60
2019-05-03T02:26:31.790Z,3.67
2019-05-03T02:28:25.347Z,2.95
2019-05-03T02:30:18.665Z,3.10
2019-05-03T02:32:13.235Z,3.08
2019-05-03T02:34:06.740Z,3.22
2019-05-03T02:37:53.518Z,4.05
2019-05-03T02:39:49.876Z,3.58
2019-05-03T02:41:47.840Z,3.37
2019-05-03T02:43:45.830Z,3.12
2019-05-03T02:45:46.667Z,4.15
2019-05-03T02:47:41.207Z,3.75
2019-05-03T02:49:35.914Z,3.65
2019-05-03T02:51:29.009Z,3.87
2019-05-03T02:55:15.970Z,3.47
2019-05-03T02:57:09.645Z,3.47
2019-05-03T02:59:02.664Z,3.60
2019-05-03T03:01:01.348Z,3.72
2019-05-03T03:02:55.757Z,3.40
2019-05-03T03:04:49.203Z,3.60
2019-05-03T03:08:37.835Z,4.40
2019-05-03T03:10:31.275Z,2.85
2019-05-03T03:14:20.383Z,4.45
2019-05-03T03:16:16.325Z,4.35
2019-05-03T03:18:10.216Z,3.77
2019-05-03T03:20:08.819Z,4.35
2019-05-03T03:22:06.106Z,4.53
2019-05-03T03:24:09.742Z,2.83
2019-05-03T03:26:06.228Z,3.37
2019-05-03T03:28:01.784Z,3.58
2019-05-03T03:30:30.755Z,3.40
2019-05-03T03:32:38.093Z,4.33
2019-05-03T03:34:54.307Z,4.50
2019-05-03T03:36:58.394Z,4.00
2019-05-03T03:38:39.726Z,3.37
2019-05-03T03:40:35.635Z,2.90
2019-05-03T03:42:31.204Z,3.50
2019-05-03T03:44:25.728Z,2.98
2019-05-03T03:46:20.577Z,3.10
2019-05-03T03:48:15.904Z,3.20
2019-05-03T03:50:10.659Z,3.98
2019-05-03T03:52:06.129Z,3.95
2019-05-03T03:54:01.445Z,3.77
2019-05-03T03:55:57.038Z,3.22
2019-05-03T03:57:50.361Z,3.25
2019-05-03T03:59:45.411Z,3.77
2019-05-03T04:01:39.306Z,3.92
2019-05-03T04:03:32.834Z,4.40
2019-05-03T04:05:26.104Z,3.42
2019-05-03T04:07:19.878Z,3.45
2019-05-03T04:09:15.900Z,4.03
2019-05-03T04:11:08.123Z,3.35
2019-05-03T04:13:02.146Z,4.42
2019-05-03T04:15:09.377Z,4.33
2019-05-03T04:17:07.091Z,5.12
2019-05-03T04:19:17.404Z,5.03
2019-05-03T04:21:11.421Z,5.37
2019-05-03T04:23:06.091Z,5.33
2019-05-03T04:24:59.541Z,7.28
2019-05-03T04:26:57.746Z,7.62
2019-05-03T04:28:49.401Z,7.10
2019-05-03T04:30:42.243Z,7.72
2019-05-03T04:32:36.031Z,7.20
2019-05-03T04:34:29.433Z,6.87
2019-05-03T04:38:16.255Z,8.75
2019-05-03T04:40:10.141Z,9.43
2019-05-03T04:42:06.347Z,9.20
2019-05-03T04:43:58.497Z,10.18
2019-05-03T04:46:06.701Z,10.25
2019-05-03T04:47:59.785Z,10.95
2019-05-03T04:49:55.283Z,10.72
2019-05-03T04:51:47.132Z,9.90
2019-05-03T04:53:42.021Z,10.93
2019-05-03T04:55:36.315Z,11.68
2019-05-03T04:57:39.865Z,11.57
2019-05-03T04:59:25.568Z,11.97
2019-05-03T05:01:19.284Z,13.05
2019-05-03T05:03:14.924Z,11.00
2019-05-03T05:05:08.534Z,13.90
2019-05-03T05:07:02.050Z,13.72
2019-05-03T05:10:48.401Z,12.68
2019-05-03T05:12:41.400Z,13.65
2019-05-03T05:16:29.048Z,13.22
2019-05-03T05:20:37.108Z,12.88
2019-05-03T05:22:35.040Z,14.38
2019-05-03T05:24:28.364Z,13.83
2019-05-03T05:26:24.848Z,12.55
2019-05-03T05:28:36.744Z,12.03
2019-05-03T05:30:30.677Z,13.88
2019-05-03T05:32:24.746Z,14.93
2019-05-03T05:34:18.128Z,13.68
2019-05-03T05:36:11.358Z,13.50
2019-05-03T05:39:57.709Z,10.98
2019-05-03T05:41:50.379Z,14.73
2019-05-03T05:43:44.648Z,16.15
2019-05-03T05:45:38.150Z,16.40
2019-05-03T05:47:35.246Z,16.27
2019-05-03T05:49:48.167Z,15.80
2019-05-03T05:51:41.354Z,16.62
2019-05-03T05:55:45.096Z,16.55
2019-05-03T05:58:02.966Z,16.82
2019-05-03T05:59:54.435Z,18.10
2019-05-03T06:01:51.958Z,18.42
2019-05-03T06:03:45.153Z,18.98
2019-05-03T06:05:38.135Z,17.75
2019-05-03T06:09:44.829Z,20.90
2019-05-03T06:11:39.400Z,18.05
2019-05-03T06:13:39.918Z,18.77
2019-05-03T06:15:44.795Z,18.85
2019-05-03T06:17:45.079Z,21.23
2019-05-03T06:19:46.035Z,19.20
2019-05-03T06:21:41.815Z,17.67
2019-05-03T06:23:36.816Z,18.45
2019-05-03T06:25:31.517Z,19.27
2019-05-03T06:27:32.249Z,17.87
2019-05-03T06:29:25.322Z,16.57
2019-05-03T06:31:22.829Z,19.10
2019-05-03T06:33:16.613Z,18.35
2019-05-03T06:35:09.722Z,20.23
2019-05-03T06:38:57.815Z,20.17
2019-05-03T06:40:51.108Z,23.40
2019-05-03T06:42:52.526Z,24.37
2019-05-03T06:44:38.930Z,20.70
2019-05-03T06:48:40.934Z,21.07
2019-05-03T06:50:34.809Z,24.12
2019-05-03T06:52:29.430Z,23.67
2019-05-03T06:54:26.690Z,24.37
2019-05-03T06:56:19.216Z,24.75
2019-05-03T06:58:12.115Z,24.67
2019-05-03T07:02:09.989Z,25.15
2019-05-03T07:04:09.464Z,25.17
2019-05-03T07:06:33.543Z,26.90
2019-05-03T07:08:34.476Z,26.30
2019-05-03T07:10:38.120Z,30.00
2019-05-03T07:12:49.205Z,30.17
2019-05-03T07:14:42.213Z,33.92
2019-05-03T07:16:35.576Z,31.23
2019-05-03T07:18:29.186Z,33.45
2019-05-03T07:22:15.236Z,33.65
2019-05-03T07:24:08.637Z,27.58
2019-05-03T07:26:01.813Z,30.00
2019-05-03T07:27:55.785Z,27.40
2019-05-03T07:29:49.985Z,26.48
2019-05-03T07:31:44.666Z,27.73
2019-05-03T07:33:39.060Z,27.85
2019-05-03T07:37:24.711Z,28.52
2019-05-03T07:39:19.454Z,31.17
2019-05-03T07:41:14.768Z,30.72
2019-05-03T07:43:07.168Z,31.42
2019-05-03T07:45:00.317Z,28.27
2019-05-03T07:46:55.401Z,30.57
2019-05-03T07:48:48.402Z,31.68
2019-05-03T07:50:41.990Z,34.25
2019-05-03T07:52:35.111Z,34.67
2019-05-03T07:54:28.009Z,38.02
2019-05-03T07:58:18.476Z,30.27
2019-05-03T08:00:14.954Z,30.92
2019-05-03T08:02:08.429Z,31.33
2019-05-03T08:04:01.449Z,28.23
2019-05-03T08:05:55.373Z,30.60
2019-05-03T08:07:49.217Z,28.55
2019-05-03T08:09:42.000Z,35.45
2019-05-03T08:13:28.481Z,31.73
2019-05-03T08:15:21.399Z,28.83
2019-05-03T08:17:15.237Z,31.48
2019-05-03T08:19:08.207Z,27.48
2019-05-03T08:21:01.502Z,28.27
2019-05-03T08:22:54.733Z,26.97
2019-05-03T08:24:48.075Z,29.25
2019-05-03T08:26:41.117Z,25.05
2019-05-03T08:30:29.629Z,29.70
2019-05-03T08:32:27.093Z,28.77
2019-05-03T08:34:22.278Z,26.30
2019-05-03T08:36:15.742Z,28.47
2019-05-03T08:38:10.173Z,28.77
2019-05-03T08:41:59.484Z,25.60
2019-05-03T08:43:55.009Z,25.92
2019-05-03T08:45:48.507Z,30.52
2019-05-03T08:47:41.859Z,31.55
2019-05-03T08:49:35.180Z,28.02
2019-05-03T08:51:28.590Z,27.58
2019-05-03T08:53:21.669Z,28.80
2019-05-03T08:55:15.938Z,25.35
2019-05-03T08:57:09.544Z,25.92
2019-05-03T08:59:04.539Z,25.50
2019-05-03T09:00:57.739Z,26.07
2019-05-03T09:04:43.344Z,23.45
2019-05-03T09:06:37.634Z,19.52
2019-05-03T09:10:27.345Z,20.50
2019-05-03T09:12:20.670Z,20.50
2019-05-03T09:14:17.634Z,21.35
2019-05-03T09:16:10.735Z,20.05
2019-05-03T09:18:04.963Z,20.60
2019-05-03T09:19:58.587Z,18.50
2019-05-03T09:23:45.109Z,18.98
2019-05-03T09:25:38.421Z,19.52
2019-05-03T09:27:31.740Z,22.73
2019-05-03T09:29:25.502Z,27.10
2019-05-03T09:31:18.919Z,23.07
2019-05-03T09:33:12.282Z,23.98
2019-05-03T09:36:58.680Z,9.43
2019-05-03T09:38:51.976Z,14.10
2019-05-03T09:40:45.572Z,13.85
2019-05-03T09:42:40.097Z,15.05
2019-05-03T09:44:34.760Z,15.65
2019-05-03T09:46:28.192Z,17.67
2019-05-03T09:48:21.634Z,18.25
2019-05-03T09:50:16.549Z,15.68
2019-05-03T09:52:10.113Z,14.65
2019-05-03T09:56:15.483Z,14.58
2019-05-03T09:58:10.941Z,12.75
2019-05-03T10:00:06.116Z,14.68
2019-05-03T10:02:00.585Z,11.70
2019-05-03T10:03:54.878Z,10.10
2019-05-03T10:05:49.159Z,10.95
2019-05-03T10:07:42.585Z,10.72
2019-05-03T10:11:28.867Z,10.28
2019-05-03T10:15:18.847Z,8.63
2019-05-03T10:17:29.783Z,11.12
2019-05-03T10:19:36.289Z,9.63
2019-05-03T10:21:17.698Z,10.80
2019-05-03T10:23:15.223Z,9.80
2019-05-03T10:25:08.360Z,8.88
2019-05-03T10:27:01.822Z,7.12
2019-05-03T10:28:56.059Z,8.30
2019-05-03T10:32:44.851Z,8.08
2019-05-03T10:34:38.033Z,8.23
2019-05-03T10:36:31.537Z,7.28
2019-05-03T10:40:27.067Z,6.95
2019-05-03T10:42:20.096Z,5.95
2019-05-03T10:44:15.087Z,5.95
2019-05-03T10:46:08.601Z,5.12
2019-05-03T10:49:55.024Z,5.10
2019-05-03T10:51:49.933Z,5.50
2019-05-03T10:53:47.046Z,5.03
2019-05-03T10:55:41.672Z,6.28
2019-05-03T10:57:36.815Z,6.50
2019-05-03T10:59:30.291Z,6.08
2019-05-03T11:01:25.135Z,6.12
2019-05-03T11:03:18.429Z,6.83
2019-05-03T11:05:11.684Z,5.40
2019-05-03T11:07:05.533Z,6.40
2019-05-03T11:09:00.779Z,6.12
2019-05-03T11:10:55.412Z,7.45
2019-05-03T11:12:48.761Z,8.25
2019-05-03T11:14:41.988Z,7.17
2019-05-03T11:16:36.183Z,8.48
2019-05-03T11:18:29.172Z,7.83
2019-05-03T11:20:34.586Z,6.75
2019-05-03T11:22:30.377Z,7.90
2019-05-03T11:24:27.299Z,9.28
2019-05-03T11:26:18.132Z,7.97
2019-05-03T11:28:19.226Z,7.87
2019-05-03T11:30:15.631Z,7.67
2019-05-03T11:32:10.990Z,6.62
2019-05-03T11:34:06.589Z,6.70
2019-05-03T11:36:14.987Z,6.95
2019-05-03T11:38:10.180Z,7.15
2019-05-03T11:40:05.121Z,7.22
2019-05-03T11:41:59.793Z,6.35
2019-05-03T11:43:52.856Z,6.60
2019-05-03T11:47:38.144Z,5.83
2019-05-03T11:49:31.578Z,5.33
2019-05-03T11:51:25.028Z,4.75
2019-05-03T11:53:17.913Z,4.87
2019-05-03T11:55:12.192Z,4.12
2019-05-03T11:57:15.677Z,3.70
2019-05-03T11:59:08.204Z,3.50
2019-05-03T12:01:12.937Z,3.70
2019-05-03T12:03:05.098Z,3.65
2019-05-03T12:05:17.985Z,3.08
2019-05-03T12:07:15.025Z,2.90
2019-05-03T12:09:07.825Z,3.58
2019-05-03T12:11:01.863Z,3.52
2019-05-03T12:12:56.887Z,3.40
2019-05-03T12:14:49.858Z,4.15
2019-05-03T12:18:50.171Z,5.03
2019-05-03T12:20:37.175Z,4.85
2019-05-03T12:22:29.887Z,4.70
2019-05-03T12:24:24.147Z,4.85
2019-05-03T12:26:18.968Z,5.30
2019-05-03T12:28:15.157Z,5.65
2019-05-03T12:30:08.378Z,6.30
2019-05-03T12:32:01.419Z,7.55
2019-05-03T12:33:55.175Z,7.55
2019-05-03T12:35:48.399Z,8.50
2019-05-03T12:37:41.137Z,7.75
2019-05-03T12:39:35.814Z,10.23
2019-05-03T12:41:29.756Z,9.33
2019-05-03T12:43:22.968Z,11.57
2019-05-03T12:47:08.471Z,12.33
2019-05-03T12:49:01.443Z,16.32
2019-05-03T12:50:55.013Z,16.10
2019-05-03T12:52:50.322Z,16.65
2019-05-03T12:54:43.836Z,16.77
2019-05-03T12:58:52.115Z,15.68
2019-05-03T13:00:48.523Z,16.30
2019-05-03T13:02:45.849Z,15.20
2019-05-03T13:04:46.172Z,15.23
2019-05-03T13:06:47.089Z,15.58
2019-05-03T13:08:42.009Z,15.28
2019-05-03T13:10:35.627Z,13.72
2019-05-03T13:12:30.158Z,13.93
2019-05-03T13:14:24.965Z,12.20
2019-05-03T13:16:20.013Z,13.40
2019-05-03T13:18:15.680Z,13.75
2019-05-03T13:20:12.628Z,13.08
2019-05-03T13:22:06.633Z,12.75
2019-05-03T13:23:59.878Z,13.90
2019-05-03T13:25:52.896Z,13.83
2019-05-03T13:27:46.366Z,11.97
2019-05-03T13:29:39.767Z,11.30
2019-05-03T13:31:34.542Z,11.53
2019-05-03T13:33:27.835Z,12.05
2019-05-03T13:37:15.013Z,9.90
2019-05-03T13:39:13.183Z,10.18
2019-05-03T13:41:06.771Z,11.03
2019-05-03T13:43:03.882Z,11.12
2019-05-03T13:44:57.557Z,11.25
2019-05-03T13:46:51.029Z,11.65
2019-05-03T13:48:48.882Z,10.78
2019-05-03T13:50:40.457Z,11.05
2019-05-03T13:52:34.603Z,19.00
2019-05-03T13:54:28.028Z,11.57
2019-05-03T13:56:21.382Z,10.25
2019-05-03T14:00:08.056Z,10.63
2019-05-03T14:02:14.439Z,10.15
2019-05-03T14:03:57.397Z,10.03
2019-05-03T14:05:50.492Z,10.65
2019-05-03T14:07:44.712Z,10.85
2019-05-03T14:09:37.752Z,10.00
2019-05-03T14:11:31.060Z,9.98
2019-05-03T14:13:24.474Z,9.60
2019-05-03T14:17:09.722Z,9.20
2019-05-03T14:19:05.249Z,9.68
2019-05-03T14:21:09.148Z,9.05
2019-05-03T14:23:02.572Z,10.53
2019-05-03T14:24:55.605Z,9.35
2019-05-03T14:26:48.610Z,9.55
2019-05-03T14:28:41.866Z,9.45
2019-05-03T14:30:35.287Z,10.23
2019-05-03T14:32:29.107Z,10.63
2019-05-03T14:34:25.518Z,10.75
2019-05-03T14:36:18.063Z,10.08
2019-05-03T14:38:11.270Z,10.20
2019-05-03T14:40:06.644Z,10.35
2019-05-03T14:41:59.753Z,10.18
2019-05-03T14:45:45.468Z,9.98
2019-05-03T14:47:38.447Z,10.53
2019-05-03T14:49:31.416Z,10.98
2019-05-03T14:51:26.693Z,10.13
2019-05-03T14:53:20.221Z,9.50
2019-05-03T14:55:15.271Z,9.63
2019-05-03T14:57:09.919Z,9.58
2019-05-03T14:59:20.842Z,9.80
2019-05-03T15:01:16.087Z,9.10
2019-05-03T15:03:10.660Z,8.50
2019-05-03T15:05:05.513Z,8.15
2019-05-03T15:06:59.123Z,8.55
2019-05-03T15:10:45.629Z,7.67
2019-05-03T15:12:38.964Z,8.98
2019-05-03T15:14:31.900Z,9.05
2019-05-03T15:16:25.132Z,9.05
2019-05-03T15:18:18.437Z,10.08
2019-05-03T15:20:14.638Z,9.30
2019-05-03T15:22:07.960Z,9.50
2019-05-03T15:24:01.227Z,10.18
2019-05-03T15:29:41.801Z,9.10
2019-05-03T15:31:35.355Z,10.13
2019-05-03T15:33:29.121Z,9.95
2019-05-03T15:35:22.646Z,10.48
2019-05-03T15:37:16.049Z,10.20
2019-05-03T15:39:09.201Z,8.88
2019-05-03T15:41:02.347Z,9.48
2019-05-03T15:42:57.549Z,9.55
2019-05-03T15:45:08.133Z,10.45
2019-05-03T15:47:09.115Z,9.35
2019-05-03T15:48:59.576Z,8.60
2019-05-03T15:50:55.359Z,9.85
2019-05-03T15:52:48.806Z,9.65
2019-05-03T15:56:34.400Z,9.60
2019-05-03T16:00:19.686Z,9.63
2019-05-03T16:02:15.183Z,8.58
2019-05-03T16:04:09.544Z,9.25
2019-05-03T16:06:02.389Z,9.25
2019-05-03T16:07:55.572Z,8.95
2019-05-03T16:11:41.276Z,9.43
2019-05-03T16:13:35.563Z,9.43
2019-05-03T16:15:29.160Z,7.85
2019-05-03T16:17:22.033Z,8.80
2019-05-03T16:19:14.971Z,8.45
2019-05-03T16:21:08.074Z,9.13
2019-05-03T16:23:01.629Z,9.30
2019-05-03T16:24:55.681Z,10.80
2019-05-03T16:27:06.018Z,9.65
2019-05-03T16:29:01.081Z,10.03
2019-05-03T16:30:55.958Z,9.03
2019-05-03T16:32:32.492Z,9.18
2019-05-03T16:34:08.524Z,10.25
2019-05-03T16:35:45.550Z,10.43
2019-05-03T16:37:38.812Z,9.70
2019-05-03T16:39:15.419Z,10.28
2019-05-03T16:40:51.779Z,8.98
2019-05-03T16:42:28.240Z,10.03
2019-05-03T16:44:14.605Z,10.98
2019-05-03T16:45:51.476Z,10.25
2019-05-03T16:47:44.913Z,10.68
2019-05-03T16:49:38.697Z,9.93
2019-05-03T16:51:31.873Z,11.05
2019-05-03T16:53:25.516Z,10.48
2019-05-03T16:55:19.253Z,9.60
2019-05-03T16:57:12.706Z,10.60
2019-05-03T16:59:05.835Z,10.70
2019-05-03T17:00:44.732Z,10.35
2019-05-03T17:02:20.956Z,10.75
2019-05-03T17:03:58.729Z,10.68
2019-05-03T17:05:36.581Z,11.40
2019-05-03T17:07:17.141Z,9.85
2019-05-03T17:09:00.319Z,11.55
2019-05-03T17:10:39.642Z,10.70
2019-05-03T17:12:26.302Z,12.03
2019-05-03T17:14:19.977Z,11.33
2019-05-03T17:16:14.563Z,10.93
2019-05-03T17:18:08.169Z,11.85
2019-05-03T17:20:01.208Z,9.70
2019-05-03T17:23:30.824Z,10.98
2019-05-03T17:25:07.518Z,11.03
2019-05-03T17:26:44.398Z,11.50
2019-05-03T17:28:38.125Z,11.88
2019-05-03T17:32:25.184Z,11.25
2019-05-03T17:34:11.316Z,11.40
2019-05-03T17:35:48.062Z,11.38
2019-05-03T17:37:25.694Z,12.07
2019-05-03T17:39:04.413Z,11.30
2019-05-03T17:40:47.317Z,10.98
2019-05-03T17:42:41.535Z,11.03
2019-05-03T17:44:19.211Z,11.20
2019-05-03T17:46:05.880Z,11.30
2019-05-03T17:47:41.993Z,10.80
2019-05-03T17:49:18.849Z,12.47
2019-05-03T17:50:55.331Z,10.90
2019-05-03T17:52:34.363Z,10.40
2019-05-03T17:54:27.214Z,11.75
2019-05-03T17:56:08.098Z,11.45
2019-05-03T17:57:55.122Z,11.53
2019-05-03T17:59:34.953Z,10.38
2019-05-03T18:01:18.761Z,12.10
2019-05-03T18:02:55.488Z,12.53
2019-05-03T18:05:06.817Z,11.03
2019-05-03T18:07:01.501Z,12.45
2019-05-03T18:09:04.315Z,12.80
2019-05-03T18:11:00.531Z,13.30
2019-05-03T18:12:54.627Z,12.82
2019-05-03T18:14:48.196Z,13.68
2019-05-03T18:18:35.344Z,11.28
2019-05-03T18:20:29.252Z,12.63
2019-05-03T18:22:24.315Z,12.28
2019-05-03T18:24:19.326Z,12.63
2019-05-03T18:28:05.267Z,13.28
2019-05-03T18:31:51.073Z,13.55
2019-05-03T18:33:44.867Z,13.40
2019-05-03T18:35:38.349Z,14.25
2019-05-03T18:37:34.840Z,12.93
2019-05-03T18:39:28.370Z,13.35
2019-05-03T18:41:22.069Z,14.20
2019-05-03T18:43:25.868Z,14.23
2019-05-03T18:45:37.307Z,13.70
2019-05-03T18:47:30.896Z,14.50
2019-05-03T18:49:24.826Z,14.15
2019-05-03T18:51:18.583Z,13.65
2019-05-03T18:53:12.270Z,14.90
2019-05-03T18:55:08.309Z,14.47
2019-05-03T18:57:01.904Z,14.33
2019-05-03T18:58:55.664Z,15.90
2019-05-03T19:00:49.383Z,14.43
2019-05-03T19:02:44.417Z,16.25
2019-05-03T19:04:42.557Z,15.75
2019-05-03T19:06:36.214Z,15.80
2019-05-03T19:08:40.443Z,15.75
2019-05-03T19:10:47.792Z,16.65
2019-05-03T19:12:48.976Z,14.73
2019-05-03T19:14:42.617Z,15.95
2019-05-03T19:16:56.930Z,15.35
2019-05-03T19:18:51.160Z,15.13
2019-05-03T19:20:45.530Z,16.02
2019-05-03T19:22:39.433Z,15.55
2019-05-03T19:24:35.161Z,15.50
2019-05-03T19:26:29.254Z,15.75
2019-05-03T19:28:24.885Z,15.90
2019-05-03T19:30:19.036Z,16.10
2019-05-03T19:32:14.974Z,16.32
2019-05-03T19:34:09.720Z,16.40
2019-05-03T19:36:04.703Z,16.82
2019-05-03T19:37:59.456Z,16.77
2019-05-03T19:39:55.282Z,15.93
2019-05-03T19:41:51.086Z,16.55
2019-05-03T19:43:45.341Z,16.02
2019-05-03T19:45:40.155Z,17.55
2019-05-03T19:47:35.348Z,16.52
2019-05-03T19:49:30.565Z,16.50
2019-05-03T19:51:25.035Z,16.55
2019-05-03T19:53:21.205Z,16.20
2019-05-03T19:55:15.466Z,16.67
2019-05-03T19:57:10.097Z,16.80
2019-05-03T19:59:06.080Z,16.05
2019-05-03T20:01:22.214Z,16.32
2019-05-03T20:03:18.325Z,16.25
2019-05-03T20:05:14.993Z,16.10
2019-05-03T20:07:17.578Z,16.20
2019-05-03T20:09:24.399Z,16.55
2019-05-03T20:11:18.499Z,17.73
2019-05-03T20:13:12.467Z,16.77
2019-05-03T20:15:06.876Z,15.60
2019-05-03T20:17:00.603Z,17.67
2019-05-03T20:18:55.523Z,16.70
2019-05-03T20:20:49.572Z,15.70
2019-05-03T20:22:45.092Z,16.30
2019-05-03T20:24:38.870Z,15.88
2019-05-03T20:26:34.631Z,16.05
2019-05-03T20:28:27.731Z,14.45
2019-05-03T20:30:21.308Z,15.13
2019-05-03T20:34:08.413Z,14.95
2019-05-03T20:36:01.820Z,14.98
2019-05-03T20:37:55.581Z,14.33
2019-05-03T20:39:49.024Z,15.88
2019-05-03T20:41:42.651Z,17.02
2019-05-03T20:43:54.950Z,14.70
2019-05-03T20:45:51.165Z,14.45
2019-05-03T20:47:49.250Z,14.38
2019-05-03T20:49:42.268Z,13.48
2019-05-03T20:51:35.109Z,14.40
2019-05-03T20:55:20.163Z,15.60
2019-05-03T20:57:14.471Z,14.33
2019-05-03T20:59:08.093Z,14.35
2019-05-03T21:01:02.627Z,13.98
2019-05-03T21:02:57.301Z,14.40
2019-05-03T21:04:51.173Z,14.00
2019-05-03T21:08:49.770Z,12.65
2019-05-03T21:10:32.908Z,14.07
2019-05-03T21:12:25.760Z,13.53
2019-05-03T21:14:18.512Z,13.48
2019-05-03T21:16:31.012Z,13.98
2019-05-03T21:18:34.650Z,13.48
2019-05-03T21:20:37.740Z,14.18
2019-05-03T21:22:32.616Z,13.60
2019-05-03T21:24:30.236Z,14.80
2019-05-03T21:26:25.407Z,14.18
2019-05-03T21:28:18.812Z,15.25
2019-05-03T21:32:04.616Z,13.88
2019-05-03T21:33:58.168Z,15.85
2019-05-03T21:35:51.458Z,15.95
2019-05-03T21:37:45.398Z,16.23
2019-05-03T21:39:38.608Z,15.32
2019-05-03T21:41:31.930Z,15.10
2019-05-03T21:45:21.086Z,15.78
2019-05-03T21:47:15.798Z,17.17
2019-05-03T21:49:10.913Z,17.02
2019-05-03T21:51:04.445Z,18.80
2019-05-03T21:52:59.616Z,16.85
2019-05-03T21:54:54.476Z,17.30
2019-05-03T21:56:48.367Z,19.65
2019-05-03T22:00:38.149Z,16.97
2019-05-03T22:02:31.191Z,18.77
2019-05-03T22:04:24.874Z,19.37
2019-05-03T22:06:18.269Z,19.45
2019-05-03T22:08:11.359Z,18.57
2019-05-03T22:10:05.238Z,17.90
2019-05-03T22:11:58.698Z,19.73
2019-05-03T22:13:54.226Z,19.23
2019-05-03T22:15:52.499Z,18.73
2019-05-03T22:18:02.393Z,17.90
2019-05-03T22:19:57.000Z,18.25
2019-05-03T22:21:57.676Z,16.32
2019-05-03T22:23:52.233Z,16.73
2019-05-03T22:25:45.387Z,16.40
2019-05-03T22:27:39.850Z,16.85
2019-05-03T22:29:35.399Z,17.40
2019-05-03T22:31:27.699Z,17.92
2019-05-03T22:33:20.485Z,17.67
2019-05-03T22:37:05.476Z,16.23
2019-05-03T22:40:51.274Z,16.67
2019-05-03T22:42:44.812Z,18.07
2019-05-03T22:44:38.269Z,17.17
2019-05-03T22:46:31.668Z,17.07
2019-05-03T22:48:25.270Z,17.35
2019-05-03T22:50:19.562Z,16.50
2019-05-03T22:52:12.829Z,16.90
2019-05-03T22:54:05.845Z,17.30
2019-05-03T22:55:59.047Z,17.67
2019-05-03T22:57:51.776Z,18.30
2019-05-03T22:59:45.056Z,18.52
2019-05-03T23:01:39.473Z,18.27
2019-05-03T23:03:35.416Z,17.75
2019-05-03T23:05:28.632Z,18.52
2019-05-03T23:07:21.604Z,19.48
2019-05-03T23:09:15.878Z,19.00
2019-05-03T23:11:09.071Z,19.73
2019-05-03T23:13:01.907Z,18.60
2019-05-03T23:14:55.118Z,19.73
2019-05-03T23:16:48.826Z,19.57
2019-05-03T23:18:44.050Z,19.35
2019-05-03T23:20:47.672Z,19.77
2019-05-03T23:22:40.476Z,18.90
2019-05-03T23:24:35.084Z,19.77
2019-05-03T23:26:28.433Z,18.25
2019-05-03T23:30:15.381Z,18.85
2019-05-03T23:32:08.623Z,20.10
2019-05-03T23:34:01.559Z,19.95
2019-05-03T23:35:55.230Z,19.23
2019-05-03T23:37:48.631Z,19.23
2019-05-03T23:39:41.867Z,17.95
2019-05-03T23:41:35.214Z,20.37
2019-05-03T23:43:28.759Z,19.67
2019-05-03T23:45:21.505Z,19.25
2019-05-03T23:47:16.068Z,19.42
2019-05-03T23:49:09.393Z,17.95
2019-05-03T23:51:04.525Z,18.60
2019-05-03T23:52:57.612Z,18.32
2019-05-03T23:56:42.873Z,18.85
2019-05-03T23:58:37.323Z,19.02
